createdAt,value
2018-07-03T00:00:52.411Z,84.53
2018-07-03T00:01:52.651Z,85.3
2018-07-03T00:02:52.375Z,85.11
2018-07-03T00:03:52.366Z,84.72
2018-07-03T00:04:52.618Z,85.58
2018-07-03T00:05:52.340Z,84.91
2018-07-03T00:06:52.329Z,84.91
2018-07-03T00:07:52.316Z,85.88
2018-07-03T00:08:52.567Z,87.74
2018-07-03T00:09:52.292Z,87.94
2018-07-03T00:10:52.283Z,87.84
2018-07-03T00:11:52.541Z,88.9
2018-07-03T00:12:52.522Z,88.61
2018-07-03T00:13:52.510Z,88.99
2018-07-03T00:14:52.506Z,90.43
2018-07-03T00:15:52.489Z,91.86
2018-07-03T00:16:52.210Z,92.73
2018-07-03T00:17:52.465Z,93.02
2018-07-03T00:18:52.191Z,92.15
2018-07-03T00:19:52.448Z,92.54
2018-07-03T00:20:52.433Z,93.69
2018-07-03T00:21:52.415Z,94.26
2018-07-03T00:22:52.405Z,94.35
2018-07-03T00:23:52.389Z,96.18
2018-07-03T00:24:52.390Z,96.75
2018-07-03T00:25:52.376Z,97.9
2018-07-03T00:26:52.353Z,98.47
2018-07-03T00:27:52.082Z,99.05
2018-07-03T00:28:52.335Z,99.19
2018-07-03T00:29:52.056Z,99.99
2018-07-03T00:30:52.047Z,99.99
2018-07-03T00:31:52.299Z,99.99
2018-07-03T00:32:52.294Z,99.99
2018-07-03T00:33:52.269Z,99.99
2018-07-03T00:34:52.263Z,99.99
2018-07-03T00:35:52.249Z,99.99
2018-07-03T00:36:52.241Z,99.99
2018-07-03T00:37:52.220Z,99.99
2018-07-03T00:38:52.210Z,99.99
2018-07-03T00:39:52.211Z,99.99
2018-07-03T00:40:52.201Z,99.99
2018-07-03T00:41:52.178Z,99.99
2018-07-03T00:42:51.900Z,99.99
2018-07-03T00:43:52.152Z,99.99
2018-07-03T00:44:51.886Z,99.99
2018-07-03T00:45:52.127Z,99.99
2018-07-03T00:46:51.853Z,99.99
2018-07-03T00:47:51.840Z,99.99
2018-07-03T00:48:52.093Z,99.99
2018-07-03T00:49:51.824Z,99.99
2018-07-03T00:50:52.065Z,99.99
2018-07-03T00:51:52.062Z,99.99
2018-07-03T00:52:51.777Z,99.99
2018-07-03T00:53:51.766Z,99.99
2018-07-03T00:54:51.755Z,99.99
2018-07-03T00:55:52.010Z,99.99
2018-07-03T00:56:51.994Z,99.99
2018-07-03T00:57:51.714Z,99.99
2018-07-03T00:58:51.710Z,99.99
2018-07-03T00:59:51.956Z,99.99
2018-07-03T01:00:51.680Z,99.99
2018-07-03T01:01:51.929Z,99.99
2018-07-03T01:02:51.925Z,99.99
2018-07-03T01:03:51.643Z,99.99
2018-07-03T01:04:51.887Z,99.99
2018-07-03T01:05:51.921Z,99.99
2018-07-03T01:06:51.612Z,99.99
2018-07-03T01:07:51.886Z,99.99
2018-07-03T01:08:51.575Z,99.99
2018-07-03T01:09:51.869Z,99.99
2018-07-03T01:10:51.817Z,99.99
2018-07-03T01:11:51.807Z,99.99
2018-07-03T01:12:51.789Z,99.99
2018-07-03T01:13:51.777Z,99.99
2018-07-03T01:14:51.763Z,99.99
2018-07-03T01:15:51.762Z,99.99
2018-07-03T01:16:51.752Z,99.99
2018-07-03T01:17:51.464Z,99.99
2018-07-03T01:18:51.716Z,99.99
2018-07-03T01:19:51.443Z,99.99
2018-07-03T01:20:51.689Z,99.99
2018-07-03T01:21:51.411Z,99.99
2018-07-03T01:22:51.406Z,99.99
2018-07-03T01:23:51.652Z,99.99
2018-07-03T01:24:51.643Z,99.99
2018-07-03T01:25:51.624Z,99.99
2018-07-03T01:26:51.614Z,99.99
2018-07-03T01:27:51.605Z,99.99
2018-07-03T01:28:51.588Z,99.99
2018-07-03T01:29:51.597Z,99.99
2018-07-03T01:30:51.568Z,99.99
2018-07-03T01:31:51.561Z,99.99
2018-07-03T01:32:51.277Z,99.99
2018-07-03T01:33:51.525Z,99.99
2018-07-03T01:34:51.511Z,99.99
2018-07-03T01:35:51.498Z,99.99
2018-07-03T01:36:51.495Z,99.99
2018-07-03T01:37:51.492Z,99.99
2018-07-03T01:38:51.461Z,99.99
2018-07-03T01:39:51.448Z,99.99
2018-07-03T01:40:51.436Z,99.99
2018-07-03T01:41:51.427Z,99.99
2018-07-03T01:42:51.410Z,99.99
2018-07-03T01:43:51.134Z,99.99
2018-07-03T01:44:51.384Z,99.99
2018-07-03T01:45:51.115Z,99.99
2018-07-03T01:46:51.364Z,99.99
2018-07-03T01:47:51.349Z,99.99
2018-07-03T01:48:51.071Z,99.99
2018-07-03T01:49:51.333Z,99.99
2018-07-03T01:50:51.310Z,99.99
2018-07-03T01:51:51.328Z,99.99
2018-07-03T01:52:51.016Z,99.99
2018-07-03T01:53:51.270Z,99.99
2018-07-03T01:54:50.992Z,99.99
2018-07-03T01:55:51.247Z,99.99
2018-07-03T01:56:50.966Z,99.99
2018-07-03T01:57:51.223Z,99.99
2018-07-03T01:58:50.941Z,99.99
2018-07-03T01:59:50.930Z,99.99
2018-07-03T02:00:51.180Z,99.99
2018-07-03T02:01:51.163Z,99.99
2018-07-03T02:02:51.156Z,99.99
2018-07-03T02:03:50.875Z,99.99
2018-07-03T02:04:51.126Z,99.99
2018-07-03T02:05:50.852Z,99.99
2018-07-03T02:06:50.845Z,99.99
2018-07-03T02:07:50.823Z,99.99
2018-07-03T02:08:50.809Z,99.99
2018-07-03T02:09:50.800Z,99.99
2018-07-03T02:10:50.782Z,99.99
2018-07-03T02:11:51.033Z,99.99
2018-07-03T02:12:51.023Z,99.99
2018-07-03T02:13:50.747Z,99.99
2018-07-03T02:14:50.995Z,99.99
2018-07-03T02:15:50.983Z,99.99
2018-07-03T02:16:50.977Z,99.99
2018-07-03T02:17:50.959Z,99.99
2018-07-03T02:18:50.679Z,99.99
2018-07-03T02:19:50.667Z,99.99
2018-07-03T02:20:50.917Z,99.99
2018-07-03T02:21:50.640Z,99.99
2018-07-03T02:22:50.888Z,99.99
2018-07-03T02:23:50.879Z,99.99
2018-07-03T02:24:50.602Z,99.99
2018-07-03T02:25:50.852Z,99.99
2018-07-03T02:26:50.836Z,99.99
2018-07-03T02:27:50.824Z,99.99
2018-07-03T02:28:50.810Z,99.99
2018-07-03T02:29:50.537Z,99.99
2018-07-03T02:30:50.518Z,99.99
2018-07-03T02:31:50.768Z,99.99
2018-07-03T02:32:50.766Z,99.99
2018-07-03T02:33:50.747Z,99.99
2018-07-03T02:34:50.473Z,99.99
2018-07-03T02:35:50.450Z,99.99
2018-07-03T02:36:50.701Z,99.99
2018-07-03T02:37:50.696Z,99.99
2018-07-03T02:38:50.677Z,99.99
2018-07-03T02:39:50.407Z,99.99
2018-07-03T02:40:50.656Z,99.99
2018-07-03T02:41:50.641Z,99.99
2018-07-03T02:42:50.360Z,99.99
2018-07-03T02:43:50.610Z,99.99
2018-07-03T02:44:50.601Z,99.99
2018-07-03T02:45:50.340Z,99.99
2018-07-03T02:46:50.305Z,99.99
2018-07-03T02:47:50.561Z,99.99
2018-07-03T02:48:50.547Z,99.99
2018-07-03T02:49:50.552Z,99.99
2018-07-03T02:50:50.520Z,99.99
2018-07-03T02:51:50.516Z,99.99
2018-07-03T02:52:50.225Z,99.99
2018-07-03T02:53:50.479Z,99.99
2018-07-03T02:54:50.197Z,99.99
2018-07-03T02:55:50.666Z,99.99
2018-07-03T02:56:50.439Z,99.99
2018-07-03T02:57:50.426Z,99.99
2018-07-03T02:58:50.421Z,99.99
2018-07-03T02:59:50.402Z,99.99
2018-07-03T03:00:50.392Z,99.99
2018-07-03T03:01:50.369Z,99.99
2018-07-03T03:02:50.088Z,99.99
2018-07-03T03:03:50.077Z,99.99
2018-07-03T03:04:50.330Z,99.99
2018-07-03T03:05:50.313Z,99.99
2018-07-03T03:06:50.298Z,99.99
2018-07-03T03:07:50.303Z,99.99
2018-07-03T03:08:50.282Z,99.99
2018-07-03T03:09:50.028Z,99.99
2018-07-03T03:10:50.259Z,99.99
2018-07-03T03:11:49.965Z,99.99
2018-07-03T03:12:50.232Z,99.99
2018-07-03T03:13:49.942Z,99.99
2018-07-03T03:14:50.198Z,99.99
2018-07-03T03:15:50.183Z,99.99
2018-07-03T03:16:49.902Z,99.99
2018-07-03T03:17:49.888Z,99.99
2018-07-03T03:18:50.138Z,99.99
2018-07-03T03:19:50.138Z,99.99
2018-07-03T03:20:50.110Z,99.99
2018-07-03T03:21:49.830Z,99.99
2018-07-03T03:22:50.082Z,99.99
2018-07-03T03:23:50.077Z,99.99
2018-07-03T03:24:50.058Z,99.99
2018-07-03T03:25:50.042Z,99.99
2018-07-03T03:26:49.765Z,99.99
2018-07-03T03:27:50.021Z,99.99
2018-07-03T03:28:49.738Z,99.99
2018-07-03T03:29:49.991Z,99.99
2018-07-03T03:30:49.719Z,99.99
2018-07-03T03:31:49.961Z,99.99
2018-07-03T03:32:49.684Z,99.99
2018-07-03T03:33:49.671Z,99.99
2018-07-03T03:34:49.925Z,99.99
2018-07-03T03:35:49.908Z,99.99
2018-07-03T03:36:49.629Z,99.99
2018-07-03T03:37:49.890Z,99.99
2018-07-03T03:38:49.603Z,99.99
2018-07-03T03:39:50.055Z,99.99
2018-07-03T03:40:49.846Z,99.99
2018-07-03T03:41:49.562Z,99.99
2018-07-03T03:42:49.815Z,99.99
2018-07-03T03:43:49.797Z,99.99
2018-07-03T03:44:49.789Z,99.99
2018-07-03T03:45:49.771Z,99.99
2018-07-03T03:46:49.497Z,99.99
2018-07-03T03:47:49.753Z,99.99
2018-07-03T03:48:49.751Z,99.99
2018-07-03T03:49:49.454Z,99.99
2018-07-03T03:50:49.706Z,99.99
2018-07-03T03:51:49.685Z,99.99
2018-07-03T03:52:49.676Z,99.99
2018-07-03T03:53:49.758Z,99.99
2018-07-03T03:54:49.649Z,99.99
2018-07-03T03:55:49.636Z,99.99
2018-07-03T03:56:49.619Z,99.99
2018-07-03T03:57:49.611Z,99.99
2018-07-03T03:58:49.599Z,99.99
2018-07-03T03:59:49.315Z,99.99
2018-07-03T04:00:49.652Z,99.99
2018-07-03T04:01:49.551Z,99.99
2018-07-03T04:02:49.538Z,99.99
2018-07-03T04:03:49.523Z,99.99
2018-07-03T04:04:49.509Z,99.99
2018-07-03T04:05:49.242Z,99.99
2018-07-03T04:06:49.484Z,99.99
2018-07-03T04:07:49.480Z,99.99
2018-07-03T04:08:49.460Z,99.99
2018-07-03T04:09:49.450Z,99.99
2018-07-03T04:10:49.430Z,99.99
2018-07-03T04:11:49.151Z,99.99
2018-07-03T04:12:49.135Z,99.99
2018-07-03T04:13:49.385Z,99.99
2018-07-03T04:14:49.114Z,99.99
2018-07-03T04:15:49.098Z,99.99
2018-07-03T04:16:49.084Z,99.99
2018-07-03T04:17:49.067Z,99.99
2018-07-03T04:18:49.321Z,99.99
2018-07-03T04:19:49.042Z,99.99
2018-07-03T04:20:49.296Z,99.99
2018-07-03T04:21:49.275Z,99.99
2018-07-03T04:22:49.264Z,99.99
2018-07-03T04:23:49.256Z,99.99
2018-07-03T04:24:48.975Z,99.99
2018-07-03T04:25:49.221Z,99.99
2018-07-03T04:26:49.214Z,99.99
2018-07-03T04:27:49.196Z,99.99
2018-07-03T04:28:48.918Z,99.99
2018-07-03T04:29:49.177Z,99.99
2018-07-03T04:30:48.892Z,99.99
2018-07-03T04:31:49.141Z,99.99
2018-07-03T04:32:49.132Z,99.99
2018-07-03T04:33:49.112Z,99.99
2018-07-03T04:34:48.842Z,99.99
2018-07-03T04:35:49.091Z,99.99
2018-07-03T04:36:49.079Z,99.99
2018-07-03T04:37:48.799Z,99.62
2018-07-03T04:38:49.046Z,99.99
2018-07-03T04:39:49.035Z,99.99
2018-07-03T04:40:48.755Z,99.71
2018-07-03T04:41:49.010Z,99.33
2018-07-03T04:42:48.999Z,99.62
2018-07-03T04:43:48.980Z,99.43
2018-07-03T04:44:48.968Z,99.52
2018-07-03T04:45:48.953Z,99.9
2018-07-03T04:46:48.739Z,99.99
2018-07-03T04:47:48.668Z,99.99
2018-07-03T04:48:48.917Z,99.99
2018-07-03T04:49:48.897Z,99.99
2018-07-03T04:50:48.887Z,99.99
2018-07-03T04:51:48.874Z,99.99
2018-07-03T04:52:48.596Z,99.99
2018-07-03T04:53:48.844Z,99.99
2018-07-03T04:54:48.567Z,99.99
2018-07-03T04:55:48.557Z,99.99
2018-07-03T04:56:48.539Z,99.99
2018-07-03T04:57:48.536Z,99.99
2018-07-03T04:58:48.517Z,99.99
2018-07-03T04:59:48.511Z,99.99
2018-07-03T05:00:48.762Z,99.99
2018-07-03T05:01:48.742Z,99.99
2018-07-03T05:02:48.728Z,99.99
2018-07-03T05:03:48.716Z,99.99
2018-07-03T05:04:48.443Z,99.99
2018-07-03T05:05:48.430Z,99.99
2018-07-03T05:06:48.676Z,99.99
2018-07-03T05:07:48.658Z,99.99
2018-07-03T05:08:48.650Z,99.99
2018-07-03T05:09:48.374Z,99.99
2018-07-03T05:10:48.357Z,99.99
2018-07-03T05:11:48.610Z,99.99
2018-07-03T05:12:48.595Z,99.99
2018-07-03T05:13:48.584Z,99.99
2018-07-03T05:14:48.309Z,99.99
2018-07-03T05:15:48.556Z,99.99
2018-07-03T05:16:48.288Z,99.99
2018-07-03T05:17:48.267Z,99.99
2018-07-03T05:18:48.252Z,99.99
2018-07-03T05:19:48.246Z,99.99
2018-07-03T05:20:48.230Z,99.99
2018-07-03T05:21:48.478Z,99.99
2018-07-03T05:22:48.474Z,99.99
2018-07-03T05:23:48.199Z,99.99
2018-07-03T05:24:48.178Z,99.99
2018-07-03T05:25:48.471Z,99.99
2018-07-03T05:26:48.417Z,99.99
2018-07-03T05:27:48.141Z,99.99
2018-07-03T05:28:48.136Z,99.99
2018-07-03T05:29:48.111Z,99.99
2018-07-03T05:30:48.108Z,99.99
2018-07-03T05:31:48.450Z,99.99
2018-07-03T05:32:48.078Z,99.99
2018-07-03T05:33:48.063Z,99.99
2018-07-03T05:34:48.413Z,99.99
2018-07-03T05:35:48.304Z,99.99
2018-07-03T05:36:48.027Z,99.99
2018-07-03T05:37:48.273Z,99.99
2018-07-03T05:38:48.266Z,99.99
2018-07-03T05:39:48.454Z,99.99
2018-07-03T05:40:48.244Z,99.99
2018-07-03T05:41:48.231Z,99.99
2018-07-03T05:42:48.279Z,99.99
2018-07-03T05:43:47.937Z,99.99
2018-07-03T05:44:48.190Z,99.99
2018-07-03T05:45:48.180Z,99.99
2018-07-03T05:46:48.165Z,99.99
2018-07-03T05:47:48.149Z,99.99
2018-07-03T05:48:47.875Z,99.99
2018-07-03T05:49:48.034Z,99.99
2018-07-03T05:50:48.127Z,99.99
2018-07-03T05:51:48.336Z,99.99
2018-07-03T05:52:47.825Z,99.99
2018-07-03T05:53:47.823Z,99.99
2018-07-03T05:54:48.064Z,99.99
2018-07-03T05:55:48.050Z,99.99
2018-07-03T05:56:48.040Z,99.99
2018-07-03T05:57:48.035Z,99.99
2018-07-03T05:58:48.016Z,99.99
2018-07-03T05:59:48.002Z,99.99
2018-07-03T06:00:47.989Z,99.99
2018-07-03T06:01:47.715Z,99.99
2018-07-03T06:02:47.966Z,99.99
2018-07-03T06:03:47.707Z,99.99
2018-07-03T06:04:47.679Z,99.99
2018-07-03T06:05:47.927Z,99.99
2018-07-03T06:06:47.654Z,99.99
2018-07-03T06:07:47.909Z,99.99
2018-07-03T06:08:47.895Z,99.99
2018-07-03T06:09:47.885Z,99.99
2018-07-03T06:10:47.874Z,99.99
2018-07-03T06:11:47.859Z,99.99
2018-07-03T06:12:47.845Z,99.99
2018-07-03T06:13:47.571Z,99.99
2018-07-03T06:14:47.851Z,99.99
2018-07-03T06:15:47.816Z,99.99
2018-07-03T06:16:47.822Z,99.99
2018-07-03T06:17:47.525Z,99.99
2018-07-03T06:18:47.515Z,99.99
2018-07-03T06:19:47.764Z,99.99
2018-07-03T06:20:47.971Z,99.99
2018-07-03T06:21:47.740Z,99.99
2018-07-03T06:22:47.493Z,99.99
2018-07-03T06:23:47.460Z,99.99
2018-07-03T06:24:47.725Z,99.99
2018-07-03T06:25:47.720Z,99.99
2018-07-03T06:26:47.424Z,99.99
2018-07-03T06:27:47.675Z,99.99
2018-07-03T06:28:47.838Z,99.99
2018-07-03T06:29:47.443Z,99.99
2018-07-03T06:30:47.652Z,99.99
2018-07-03T06:31:47.372Z,99.99
2018-07-03T06:32:47.360Z,99.99
2018-07-03T06:33:47.622Z,99.99
2018-07-03T06:34:47.340Z,99.99
2018-07-03T06:35:47.593Z,99.99
2018-07-03T06:36:47.579Z,99.99
2018-07-03T06:37:47.595Z,99.99
2018-07-03T06:38:47.300Z,99.99
2018-07-03T06:39:47.555Z,99.99
2018-07-03T06:40:47.642Z,99.99
2018-07-03T06:41:47.550Z,99.99
2018-07-03T06:42:47.539Z,99.99
2018-07-03T06:43:47.512Z,99.99
2018-07-03T06:44:47.618Z,99.99
2018-07-03T06:45:47.519Z,99.99
2018-07-03T06:46:47.481Z,99.99
2018-07-03T06:47:47.205Z,99.99
2018-07-03T06:48:47.461Z,99.99
2018-07-03T06:49:47.184Z,99.99
2018-07-03T06:50:47.445Z,99.99
2018-07-03T06:51:47.626Z,99.99
2018-07-03T06:52:47.492Z,99.99
2018-07-03T06:53:47.414Z,99.99
2018-07-03T06:54:47.137Z,99.99
2018-07-03T06:55:47.446Z,96.12
2018-07-03T06:56:47.131Z,90.69
2018-07-03T06:57:47.404Z,87.51
2018-07-03T06:58:47.417Z,85.87
2018-07-03T06:59:47.361Z,81.25
2018-07-03T07:00:47.352Z,79.5
2018-07-03T07:01:47.344Z,76.3
2018-07-03T07:02:47.330Z,67.46
2018-07-03T07:03:47.061Z,62.92
2018-07-03T07:04:47.054Z,60.46
2018-07-03T07:05:47.049Z,56.96
2018-07-03T07:06:47.298Z,55.46
2018-07-03T07:07:47.291Z,54.25
2018-07-03T07:08:47.774Z,53.69
2018-07-03T07:09:47.013Z,53.16
2018-07-03T07:10:47.272Z,51.56
2018-07-03T07:11:47.254Z,51.48
2018-07-03T07:12:47.244Z,49.66
2018-07-03T07:13:47.236Z,49.98
2018-07-03T07:14:47.228Z,48.54
2018-07-03T07:15:47.225Z,46.78
2018-07-03T07:16:47.214Z,47.09
2018-07-03T07:17:47.202Z,46.5
2018-07-03T07:18:46.935Z,46.53
2018-07-03T07:19:47.188Z,45.75
2018-07-03T07:20:47.184Z,45.37
2018-07-03T07:21:47.183Z,43.84
2018-07-03T07:22:47.175Z,44.13
2018-07-03T07:23:46.906Z,43.44
2018-07-03T07:24:46.897Z,43.93
2018-07-03T07:25:47.152Z,43.15
2018-07-03T07:26:47.146Z,42.29
2018-07-03T07:27:46.885Z,41.6
2018-07-03T07:28:47.149Z,42.09
2018-07-03T07:29:47.144Z,41.13
2018-07-03T07:30:46.865Z,41.23
2018-07-03T07:31:47.128Z,40.95
2018-07-03T07:32:46.861Z,40.37
2018-07-03T07:33:46.859Z,40.56
2018-07-03T07:34:47.117Z,41.35
2018-07-03T07:35:47.135Z,40.66
2018-07-03T07:36:46.853Z,40.17
2018-07-03T07:37:46.850Z,40.37
2018-07-03T07:38:47.110Z,40.76
2018-07-03T07:39:47.306Z,41.17
2018-07-03T07:40:46.844Z,40.39
2018-07-03T07:41:46.840Z,39.43
2018-07-03T07:42:46.977Z,37.88
2018-07-03T07:43:47.104Z,38.27
2018-07-03T07:44:47.101Z,38.46
2018-07-03T07:45:46.832Z,37.7
2018-07-03T07:46:47.101Z,38.76
2018-07-03T07:47:46.838Z,38.58
2018-07-03T07:48:47.102Z,38.01
2018-07-03T07:49:46.833Z,37.13
2018-07-03T07:50:46.836Z,37.13
2018-07-03T07:51:47.098Z,36.85
2018-07-03T07:52:47.096Z,36.47
2018-07-03T07:53:47.098Z,36.3
2018-07-03T07:54:47.104Z,35.8
2018-07-03T07:55:47.097Z,35.51
2018-07-03T07:56:47.096Z,35.53
2018-07-03T07:57:47.131Z,35.35
2018-07-03T07:58:47.101Z,35.44
2018-07-03T07:59:47.101Z,36.04
2018-07-03T08:00:47.107Z,35.44
2018-07-03T08:01:47.105Z,36.43
2018-07-03T08:02:47.111Z,36.13
2018-07-03T08:03:47.109Z,36.33
2018-07-03T08:04:47.107Z,36.33
2018-07-03T08:05:46.844Z,35.84
2018-07-03T08:06:47.237Z,35.66
2018-07-03T08:07:47.113Z,35.56
2018-07-03T08:08:46.852Z,35.46
2018-07-03T08:09:47.118Z,35.58
2018-07-03T08:10:47.121Z,35.66
2018-07-03T08:11:46.860Z,35.27
2018-07-03T08:12:47.127Z,34.79
2018-07-03T08:13:46.862Z,34.49
2018-07-03T08:14:47.130Z,34.81
2018-07-03T08:15:47.134Z,34.59
2018-07-03T08:16:47.137Z,35.38
2018-07-03T08:17:47.137Z,34.12
2018-07-03T08:18:46.881Z,33.72
2018-07-03T08:19:47.150Z,33.72
2018-07-03T08:20:47.150Z,33.72
2018-07-03T08:21:47.162Z,33.54
2018-07-03T08:22:47.152Z,33.25
2018-07-03T08:23:47.162Z,33.74
2018-07-03T08:24:47.159Z,32.85
2018-07-03T08:25:47.165Z,33.04
2018-07-03T08:26:46.906Z,33.04
2018-07-03T08:27:46.916Z,32.65
2018-07-03T08:28:47.178Z,32.95
2018-07-03T08:29:46.916Z,31.98
2018-07-03T08:30:47.185Z,32.28
2018-07-03T08:31:47.188Z,32.95
2018-07-03T08:32:46.927Z,32.65
2018-07-03T08:33:47.197Z,33.44
2018-07-03T08:34:47.205Z,33.69
2018-07-03T08:35:47.200Z,34.54
2018-07-03T08:36:46.941Z,34.61
2018-07-03T08:37:46.977Z,35.59
2018-07-03T08:38:47.213Z,36.47
2018-07-03T08:39:47.214Z,37.13
2018-07-03T08:40:47.229Z,37.7
2018-07-03T08:41:47.227Z,37.48
2018-07-03T08:42:46.985Z,37.66
2018-07-03T08:43:47.229Z,38.23
2018-07-03T08:44:47.238Z,38.31
2018-07-03T08:45:46.967Z,38.2
2018-07-03T08:46:46.964Z,39.72
2018-07-03T08:47:47.238Z,39.69
2018-07-03T08:48:46.965Z,40.64
2018-07-03T08:49:47.229Z,42.16
2018-07-03T08:50:47.228Z,42.34
2018-07-03T08:51:47.355Z,43.68
2018-07-03T08:52:47.225Z,43.57
2018-07-03T08:53:46.963Z,44.62
2018-07-03T08:54:47.231Z,45.2
2018-07-03T08:55:46.968Z,44.89
2018-07-03T08:56:47.229Z,44.2
2018-07-03T08:57:47.227Z,43.89
2018-07-03T08:58:47.223Z,43.58
2018-07-03T08:59:47.222Z,43.58
2018-07-03T09:00:47.305Z,43.55
2018-07-03T09:01:47.221Z,44.43
2018-07-03T09:02:46.956Z,44.55
2018-07-03T09:03:47.292Z,43.89
2018-07-03T09:04:47.218Z,42.28
2018-07-03T09:05:47.223Z,41.22
2018-07-03T09:06:46.960Z,40.01
2018-07-03T09:07:47.228Z,39.84
2018-07-03T09:08:47.227Z,39.2
2018-07-03T09:09:47.232Z,38.06
2018-07-03T09:10:47.229Z,37.02
2018-07-03T09:11:46.968Z,36.55
2018-07-03T09:12:47.236Z,35.58
2018-07-03T09:13:46.973Z,34.34
2018-07-03T09:14:47.239Z,34.26
2018-07-03T09:15:47.249Z,33.29
2018-07-03T09:16:46.985Z,33.79
2018-07-03T09:17:47.305Z,32.79
2018-07-03T09:18:46.989Z,34.54
2018-07-03T09:19:46.999Z,35.19
2018-07-03T09:20:47.260Z,35.27
2018-07-03T09:21:47.269Z,35.75
2018-07-03T09:22:47.007Z,36.8
2018-07-03T09:23:47.011Z,36.59
2018-07-03T09:24:47.274Z,36.88
2018-07-03T09:25:47.017Z,37.57
2018-07-03T09:26:47.019Z,37.75
2018-07-03T09:27:47.020Z,38.22
2018-07-03T09:28:47.027Z,38.59
2018-07-03T09:29:47.027Z,38.09
2018-07-03T09:30:47.151Z,38.28
2018-07-03T09:31:47.306Z,38.3
2018-07-03T09:32:47.299Z,38.3
2018-07-03T09:33:47.299Z,37.22
2018-07-03T09:34:47.302Z,36.73
2018-07-03T09:35:47.303Z,37.99
2018-07-03T09:36:47.043Z,38.24
2018-07-03T09:37:47.308Z,38.9
2018-07-03T09:38:47.049Z,39.59
2018-07-03T09:39:47.517Z,41.44
2018-07-03T09:40:47.323Z,39.39
2018-07-03T09:41:47.317Z,38.71
2018-07-03T09:42:47.324Z,38.43
2018-07-03T09:43:47.327Z,38.04
2018-07-03T09:44:47.336Z,38.18
2018-07-03T09:45:47.332Z,37.6
2018-07-03T09:46:47.337Z,37.3
2018-07-03T09:47:47.339Z,37.99
2018-07-03T09:48:47.364Z,39.14
2018-07-03T09:49:47.351Z,38.73
2018-07-03T09:50:47.081Z,37.75
2018-07-03T09:51:47.350Z,38.02
2018-07-03T09:52:47.349Z,38.12
2018-07-03T09:53:47.087Z,37.25
2018-07-03T09:54:47.463Z,37.62
2018-07-03T09:55:47.088Z,37.91
2018-07-03T09:56:47.352Z,38.59
2018-07-03T09:57:47.490Z,38.59
2018-07-03T09:58:47.351Z,38.77
2018-07-03T09:59:47.357Z,38.09
2018-07-03T10:00:47.091Z,39.16
2018-07-03T10:01:47.356Z,38.48
2018-07-03T10:02:47.356Z,38.96
2018-07-03T10:03:47.346Z,38.77
2018-07-03T10:04:47.352Z,38.09
2018-07-03T10:05:47.086Z,37.12
2018-07-03T10:06:47.083Z,39.34
2018-07-03T10:07:47.086Z,38.46
2018-07-03T10:08:47.347Z,38.46
2018-07-03T10:09:47.341Z,38.85
2018-07-03T10:10:47.078Z,38.24
2018-07-03T10:11:47.076Z,38.73
2018-07-03T10:12:47.338Z,40
2018-07-03T10:13:47.074Z,39.22
2018-07-03T10:14:47.331Z,39.41
2018-07-03T10:15:47.335Z,39.41
2018-07-03T10:16:47.071Z,39.7
2018-07-03T10:17:47.336Z,39.41
2018-07-03T10:18:47.369Z,39.61
2018-07-03T10:19:47.060Z,39.9
2018-07-03T10:20:47.064Z,39.51
2018-07-03T10:21:47.322Z,39.51
2018-07-03T10:22:47.052Z,39.31
2018-07-03T10:23:47.322Z,39.04
2018-07-03T10:24:47.314Z,38.46
2018-07-03T10:25:47.053Z,38.85
2018-07-03T10:26:47.051Z,38.75
2018-07-03T10:27:47.307Z,39.65
2018-07-03T10:28:47.315Z,37.04
2018-07-03T10:29:47.310Z,36.66
2018-07-03T10:30:47.049Z,36.6
2018-07-03T10:31:47.316Z,36.05
2018-07-03T10:32:47.316Z,35.6
2018-07-03T10:33:47.317Z,34.74
2018-07-03T10:34:47.313Z,33.69
2018-07-03T10:35:47.320Z,32.92
2018-07-03T10:36:47.319Z,32.94
2018-07-03T10:37:47.064Z,33.65
2018-07-03T10:38:47.071Z,32.98
2018-07-03T10:39:47.333Z,30.55
2018-07-03T10:40:47.335Z,29.89
2018-07-03T10:41:47.076Z,31.66
2018-07-03T10:42:47.344Z,30.79
2018-07-03T10:43:47.357Z,28.05
2018-07-03T10:44:47.097Z,30.52
2018-07-03T10:45:47.366Z,29.75
2018-07-03T10:46:47.103Z,29.06
2018-07-03T10:47:47.378Z,29.66
2018-07-03T10:48:47.122Z,28.59
2018-07-03T10:49:47.383Z,26.54
2018-07-03T10:50:47.128Z,28.02
2018-07-03T10:51:47.394Z,27.72
2018-07-03T10:52:47.408Z,27.83
2018-07-03T10:53:47.418Z,28.34
2018-07-03T10:54:47.422Z,27.94
2018-07-03T10:55:47.442Z,28.65
2018-07-03T10:56:47.720Z,27.18
2018-07-03T10:57:47.438Z,25.9
2018-07-03T10:58:47.178Z,26.1
2018-07-03T10:59:47.182Z,26.39
2018-07-03T11:00:47.460Z,26.59
2018-07-03T11:01:47.465Z,25.99
2018-07-03T11:02:47.474Z,26.65
2018-07-03T11:03:47.482Z,27.33
2018-07-03T11:04:47.489Z,25.96
2018-07-03T11:05:47.586Z,26.45
2018-07-03T11:06:47.500Z,26.56
2018-07-03T11:07:47.510Z,26.94
2018-07-03T11:08:47.521Z,27.14
2018-07-03T11:09:47.527Z,26.96
2018-07-03T11:10:47.267Z,26.48
2018-07-03T11:11:47.281Z,26.57
2018-07-03T11:12:47.550Z,26.49
2018-07-03T11:13:47.312Z,26.09
2018-07-03T11:14:47.565Z,25.6
2018-07-03T11:15:47.580Z,26.38
2018-07-03T11:16:47.585Z,26.18
2018-07-03T11:17:47.596Z,24.81
2018-07-03T11:18:47.601Z,26.28
2018-07-03T11:19:47.861Z,26.59
2018-07-03T11:20:47.350Z,24.81
2018-07-03T11:21:47.624Z,25.99
2018-07-03T11:22:47.630Z,26.38
2018-07-03T11:23:47.639Z,27.97
2018-07-03T11:24:47.382Z,25.5
2018-07-03T11:25:47.397Z,26.08
2018-07-03T11:26:47.410Z,25.98
2018-07-03T11:27:47.678Z,25.09
2018-07-03T11:28:47.419Z,26.28
2018-07-03T11:29:47.689Z,25.68
2018-07-03T11:30:47.438Z,25.49
2018-07-03T11:31:47.704Z,25.78
2018-07-03T11:32:47.714Z,26.57
2018-07-03T11:33:47.918Z,26.28
2018-07-03T11:34:47.470Z,26.38
2018-07-03T11:35:47.741Z,25.31
2018-07-03T11:36:47.747Z,25.9
2018-07-03T11:37:47.910Z,25.61
2018-07-03T11:38:47.760Z,26.1
2018-07-03T11:39:47.969Z,24.14
2018-07-03T11:40:47.785Z,25.71
2018-07-03T11:41:47.782Z,24.82
2018-07-03T11:42:47.795Z,24.92
2018-07-03T11:43:47.536Z,25.71
2018-07-03T11:44:47.884Z,25.72
2018-07-03T11:45:47.822Z,25.52
2018-07-03T11:46:47.823Z,25.81
2018-07-03T11:47:47.829Z,26.01
2018-07-03T11:48:47.839Z,25.82
2018-07-03T11:49:47.848Z,24.93
2018-07-03T11:50:47.862Z,25.93
2018-07-03T11:51:47.865Z,24.35
2018-07-03T11:52:47.608Z,25.73
2018-07-03T11:53:47.883Z,25.34
2018-07-03T11:54:47.885Z,24.05
2018-07-03T11:55:47.901Z,24.46
2018-07-03T11:56:47.646Z,24.36
2018-07-03T11:57:47.938Z,24.46
2018-07-03T11:58:47.922Z,25.16
2018-07-03T11:59:47.931Z,24.27
2018-07-03T12:00:47.939Z,24.27
2018-07-03T12:01:47.788Z,24.37
2018-07-03T12:02:47.963Z,25.46
2018-07-03T12:03:47.973Z,24.68
2018-07-03T12:04:48.007Z,24.48
2018-07-03T12:05:47.721Z,24.37
2018-07-03T12:06:48.006Z,25.37
2018-07-03T12:07:47.742Z,24.57
2018-07-03T12:08:47.751Z,25.27
2018-07-03T12:09:47.760Z,23.49
2018-07-03T12:10:48.028Z,23.19
2018-07-03T12:11:47.779Z,24.68
2018-07-03T12:12:47.787Z,25.07
2018-07-03T12:13:47.799Z,24.36
2018-07-03T12:14:48.068Z,24.25
2018-07-03T12:15:48.083Z,24.45
2018-07-03T12:16:47.831Z,24.46
2018-07-03T12:17:47.840Z,24.27
2018-07-03T12:18:48.113Z,23.89
2018-07-03T12:19:48.255Z,26.37
2018-07-03T12:20:47.868Z,24.58
2018-07-03T12:21:48.140Z,25.29
2018-07-03T12:22:48.155Z,24.3
2018-07-03T12:23:47.897Z,23.41
2018-07-03T12:24:48.167Z,23.91
2018-07-03T12:25:47.919Z,24.41
2018-07-03T12:26:48.188Z,24.42
2018-07-03T12:27:47.938Z,23.43
2018-07-03T12:28:47.965Z,25.62
2018-07-03T12:29:47.957Z,23.93
2018-07-03T12:30:48.225Z,21.96
2018-07-03T12:31:48.235Z,21.35
2018-07-03T12:32:47.988Z,22.55
2018-07-03T12:33:48.256Z,23.43
2018-07-03T12:34:48.265Z,22.22
2018-07-03T12:35:48.273Z,22.92
2018-07-03T12:36:48.453Z,24.49
2018-07-03T12:37:48.031Z,24.3
2018-07-03T12:38:48.040Z,24.41
2018-07-03T12:39:48.313Z,24.6
2018-07-03T12:40:48.326Z,23.43
2018-07-03T12:41:48.334Z,22.83
2018-07-03T12:42:48.341Z,23.12
2018-07-03T12:43:48.358Z,22.02
2018-07-03T12:44:48.367Z,23.69
2018-07-03T12:45:48.375Z,22.78
2018-07-03T12:46:48.114Z,23.26
2018-07-03T12:47:48.391Z,24.51
2018-07-03T12:48:48.144Z,23.51
2018-07-03T12:49:48.202Z,25.39
2018-07-03T12:50:48.427Z,24.5
2018-07-03T12:51:48.161Z,26.26
2018-07-03T12:52:48.174Z,25.28
2018-07-03T12:53:48.446Z,25.78